Terminal Aerodrome Forecast
Issued by NWS Cleveland, OH

Home | Current Version | Previous Version | Graphics & Text | Print | Product List | Glossary On
Versions: 1 2 3 4 5 6 7 8 9 10 11 12 13 14 15 16 17 18 19 20
446
FTUS41 KCLE 241121
TAFCAK
TAF
KCAK 241121Z 2412/2512 12010KT P6SM -SHRA OVC050
     FM241800 12011KT 5SM -SHRA BR OVC035
      TEMPO 2422/2502 2SM -SHRA BR BKN015 OVC030
     FM250200 09007KT 3SM -SHRA BKN015 OVC025
      TEMPO 2505/2508 BKN006 OVC015
     FM250800 02004KT 4SM -SHRA BR BKN006 OVC015=

USA.gov is the U.S. government's official web portal to all federal, state and local government web resources and services.